Time;durP1;ratioP1;P1;durP2;ratioP2;P2;SDS_P1;SDS_P2;PMS_P1;PMS_P2;Temp;Humidity;BMP_temperature;BMP_pressure;BME280_temperature;BME280_humidity;BME280_pressure;Samples;Min_cycle;Max_cycle;Signal;HPM_P1;HPM_P2
2024/01/20 00:01:20;;;;;;;27.42;15.50;;;0.90;99.90;;;;;;5010984;28;20124;-78
2024/01/20 00:03:46;;;;;;;23.10;14.55;;;0.90;99.90;;;;;;5006142;28;20034;-78
2024/01/20 00:06:12;;;;;;;25.17;15.23;;;0.90;99.90;;;;;;5009650;28;20049;-77
2024/01/20 00:08:38;;;;;;;25.08;15.05;;;0.90;99.90;;;;;;5002801;28;20133;-78
2024/01/20 00:11:03;;;;;;;25.67;15.80;;;0.90;99.90;;;;;;5013531;28;20044;-78
2024/01/20 00:13:29;;;;;;;25.13;15.40;;;0.90;99.90;;;;;;5013663;28;20037;-78
2024/01/20 00:15:54;;;;;;;28.52;15.57;;;0.90;99.90;;;;;;5013204;28;20479;-78
2024/01/20 00:18:20;;;;;;;27.35;15.65;;;0.90;99.90;;;;;;5012665;28;20439;-77
2024/01/20 00:20:46;;;;;;;26.13;15.50;;;0.90;99.90;;;;;;5012311;28;20402;-78
2024/01/20 00:23:14;;;;;;;26.35;15.70;;;0.90;99.90;;;;;;5006709;28;20096;-78
2024/01/20 00:25:40;;;;;;;28.27;17.15;;;0.90;99.90;;;;;;5012510;28;20057;-78
2024/01/20 00:28:07;;;;;;;29.20;16.38;;;0.80;99.90;;;;;;5013813;28;20040;-78
2024/01/20 00:30:32;;;;;;;34.72;16.65;;;0.80;99.90;;;;;;5004253;28;20084;-75
2024/01/20 00:32:58;;;;;;;27.10;17.02;;;0.80;99.90;;;;;;5012047;28;20073;-76
2024/01/20 00:35:24;;;;;;;28.50;16.17;;;0.80;99.90;;;;;;5007408;28;20038;-76
2024/01/20 00:37:49;;;;;;;35.63;17.58;;;0.80;99.90;;;;;;5006098;28;20048;-76
2024/01/20 00:40:15;;;;;;;30.10;16.48;;;0.80;99.90;;;;;;5008742;28;20510;-76
2024/01/20 00:42:40;;;;;;;28.55;16.60;;;0.80;99.90;;;;;;5008646;28;20085;-75
2024/01/20 00:45:07;;;;;;;26.27;16.70;;;0.80;99.90;;;;;;5008726;28;20049;-76
2024/01/20 00:47:33;;;;;;;25.00;15.65;;;0.80;99.90;;;;;;5011263;28;20045;-76
2024/01/20 00:49:59;;;;;;;30.85;17.23;;;0.80;99.90;;;;;;5009199;28;20104;-76
2024/01/20 00:52:24;;;;;;;30.92;17.67;;;0.80;99.90;;;;;;5007328;28;20042;-76
2024/01/20 00:54:51;;;;;;;33.20;17.80;;;0.80;99.90;;;;;;5006547;28;20480;-76
2024/01/20 00:57:17;;;;;;;37.63;17.77;;;0.80;99.90;;;;;;4988952;28;20068;-76
2024/01/20 00:59:44;;;;;;;35.50;17.40;;;0.80;99.90;;;;;;5009840;28;20034;-76
2024/01/20 01:02:10;;;;;;;28.50;18.25;;;0.80;99.90;;;;;;5007867;28;20053;-76
2024/01/20 01:04:35;;;;;;;31.63;17.85;;;0.80;99.90;;;;;;4993116;28;20041;-76
2024/01/20 01:07:01;;;;;;;28.90;16.50;;;0.80;99.90;;;;;;5004188;28;20082;-76
2024/01/20 01:09:26;;;;;;;30.30;17.95;;;0.70;99.90;;;;;;4993325;28;20053;-76
2024/01/20 01:11:52;;;;;;;32.58;19.17;;;0.80;99.90;;;;;;5010919;28;20042;-76
2024/01/20 01:14:18;;;;;;;32.13;17.92;;;0.80;99.90;;;;;;5011274;28;20041;-76
2024/01/20 01:16:44;;;;;;;33.13;17.63;;;0.70;99.90;;;;;;5011524;28;20046;-76
2024/01/20 01:19:09;;;;;;;29.45;19.15;;;0.70;99.90;;;;;;4991267;28;20037;-76
2024/01/20 01:21:35;;;;;;;34.42;19.92;;;0.70;99.90;;;;;;4988214;28;20042;-76
2024/01/20 01:24:00;;;;;;;30.95;19.20;;;0.70;99.90;;;;;;5001070;28;20041;-76
2024/01/20 01:26:26;;;;;;;34.97;20.90;;;0.70;99.90;;;;;;5003019;28;20050;-75
2024/01/20 01:28:51;;;;;;;30.30;19.17;;;0.70;99.90;;;;;;4994926;28;20090;-76
2024/01/20 01:31:17;;;;;;;33.22;21.08;;;0.70;99.90;;;;;;5001177;28;20499;-76
2024/01/20 01:33:43;;;;;;;34.45;20.50;;;0.70;99.90;;;;;;5002750;28;20542;-76
2024/01/20 01:36:09;;;;;;;34.83;20.63;;;0.70;99.90;;;;;;5000587;28;20395;-76
2024/01/20 01:38:35;;;;;;;34.78;20.30;;;0.70;99.90;;;;;;4997076;28;20038;-76
2024/01/20 01:41:00;;;;;;;41.13;20.95;;;0.80;99.90;;;;;;5000636;28;20125;-76
2024/01/20 01:43:26;;;;;;;38.55;20.30;;;0.70;99.90;;;;;;4997163;28;20070;-76
2024/01/20 01:45:52;;;;;;;35.03;20.15;;;0.80;99.90;;;;;;4996933;28;20113;-76
2024/01/20 01:48:17;;;;;;;37.90;20.83;;;0.80;99.90;;;;;;5001190;28;20041;-78
2024/01/20 01:50:43;;;;;;;36.88;20.88;;;0.80;99.90;;;;;;5002086;28;20072;-78
2024/01/20 01:53:11;;;;;;;34.88;20.55;;;0.80;99.90;;;;;;5009797;28;20084;-78
2024/01/20 01:55:36;;;;;;;32.50;19.77;;;0.80;99.90;;;;;;5005525;28;20053;-79
2024/01/20 01:58:03;;;;;;;34.63;20.45;;;0.80;99.90;;;;;;5002321;28;20030;-79
2024/01/20 02:00:29;;;;;;;37.70;19.45;;;0.70;99.90;;;;;;4998367;28;20057;-80
2024/01/20 02:02:55;;;;;;;35.20;21.20;;;0.80;99.90;;;;;;5001266;28;20048;-79
2024/01/20 02:05:20;;;;;;;36.92;21.30;;;0.80;99.90;;;;;;5005868;28;20128;-78
2024/01/20 02:07:48;;;;;;;34.33;21.08;;;0.70;99.90;;;;;;5008741;28;20049;-79
2024/01/20 02:10:17;;;;;;;39.55;21.95;;;0.80;99.90;;;;;;5008329;28;20045;-78
2024/01/20 02:12:42;;;;;;;36.10;22.77;;;0.70;99.90;;;;;;5003476;28;20042;-78
2024/01/20 02:15:09;;;;;;;35.47;21.38;;;0.70;99.90;;;;;;5007349;28;20071;-78
2024/01/20 02:17:35;;;;;;;40.72;23.00;;;0.70;99.90;;;;;;5004075;28;20046;-78
2024/01/20 02:20:00;;;;;;;38.03;22.23;;;0.80;99.90;;;;;;5004376;28;20050;-78
2024/01/20 02:22:26;;;;;;;36.13;21.38;;;0.70;99.90;;;;;;5007585;28;20528;-78
2024/01/20 02:24:51;;;;;;;36.47;20.48;;;0.70;99.90;;;;;;4988427;28;20120;-78
2024/01/20 02:27:18;;;;;;;35.53;21.35;;;0.70;99.90;;;;;;5010401;28;20462;-78
2024/01/20 02:29:44;;;;;;;35.38;20.98;;;0.60;99.90;;;;;;5008223;28;20485;-77
2024/01/20 02:32:09;;;;;;;38.58;21.48;;;0.60;99.90;;;;;;5008425;28;20050;-78
2024/01/20 02:34:37;;;;;;;40.92;23.25;;;0.60;99.90;;;;;;5005285;28;20060;-78
2024/01/20 02:37:07;;;;;;;35.55;21.90;;;0.60;99.90;;;;;;5005581;28;20029;-78
2024/01/20 02:39:34;;;;;;;36.13;20.98;;;0.60;99.90;;;;;;5005775;28;20127;-78
2024/01/20 02:41:59;;;;;;;40.85;22.48;;;0.60;99.90;;;;;;5006284;28;20038;-78
2024/01/20 02:44:25;;;;;;;41.60;22.00;;;0.60;99.90;;;;;;5007915;28;20126;-78
2024/01/20 02:46:52;;;;;;;41.80;22.63;;;0.60;99.90;;;;;;5009069;28;20038;-78
2024/01/20 02:49:18;;;;;;;35.08;22.15;;;0.60;99.90;;;;;;5007870;28;20043;-79
2024/01/20 02:51:43;;;;;;;41.92;23.13;;;0.50;99.90;;;;;;5007864;28;20041;-78
2024/01/20 02:54:09;;;;;;;36.38;22.90;;;0.50;99.90;;;;;;5008608;28;20427;-78
2024/01/20 02:56:34;;;;;;;41.05;23.35;;;0.50;99.90;;;;;;5012020;28;21548;-78
2024/01/20 02:59:00;;;;;;;38.58;23.23;;;0.40;99.90;;;;;;5009457;28;20042;-78
2024/01/20 03:01:25;;;;;;;38.25;22.45;;;0.40;99.90;;;;;;5012568;28;20046;-78
2024/01/20 03:03:51;;;;;;;38.55;21.70;;;0.40;99.90;;;;;;5006330;28;20463;-78
2024/01/20 03:06:16;;;;;;;40.45;22.60;;;0.40;99.90;;;;;;4995866;28;20491;-78
2024/01/20 03:08:42;;;;;;;45.15;24.08;;;0.40;99.90;;;;;;5012380;28;20046;-78
2024/01/20 03:11:07;;;;;;;40.78;22.63;;;0.40;99.90;;;;;;5006397;28;20133;-78
2024/01/20 03:13:33;;;;;;;37.75;22.63;;;0.30;99.90;;;;;;5005993;28;20042;-78
2024/01/20 03:15:58;;;;;;;41.85;22.45;;;0.30;99.90;;;;;;5007968;28;20033;-79
2024/01/20 03:18:24;;;;;;;40.08;22.25;;;0.30;99.90;;;;;;5005555;28;20053;-78
2024/01/20 03:20:50;;;;;;;40.33;21.83;;;0.30;99.90;;;;;;5008281;28;20483;-78
2024/01/20 03:23:15;;;;;;;39.45;22.85;;;0.30;99.90;;;;;;4996842;28;20041;-77
2024/01/20 03:25:41;;;;;;;42.28;22.70;;;0.30;99.90;;;;;;5012928;28;20042;-78
2024/01/20 03:28:06;;;;;;;40.08;23.27;;;0.30;99.90;;;;;;5013583;28;20038;-78
2024/01/20 03:30:32;;;;;;;39.60;22.23;;;0.20;99.90;;;;;;5009662;28;20523;-78
2024/01/20 03:32:57;;;;;;;44.75;24.48;;;0.20;99.90;;;;;;5011904;28;20104;-78
2024/01/20 03:35:23;;;;;;;37.53;21.67;;;0.20;99.90;;;;;;5008641;28;20499;-78
2024/01/20 03:37:49;;;;;;;41.60;23.60;;;0.30;99.90;;;;;;5012808;28;20376;-78
2024/01/20 03:40:14;;;;;;;43.58;22.60;;;0.20;99.90;;;;;;5012719;28;20037;-77
2024/01/20 03:42:40;;;;;;;43.00;23.30;;;0.20;99.90;;;;;;5007912;28;20041;-78
2024/01/20 03:45:06;;;;;;;44.83;22.90;;;0.20;99.90;;;;;;5006962;28;20046;-77
2024/01/20 03:47:31;;;;;;;44.13;23.40;;;0.20;99.90;;;;;;5008623;28;20085;-78
2024/01/20 03:49:57;;;;;;;46.83;23.02;;;0.20;99.90;;;;;;5013217;28;20045;-78
2024/01/20 03:52:23;;;;;;;43.83;23.85;;;0.20;99.90;;;;;;5010812;28;20108;-78
2024/01/20 03:54:48;;;;;;;45.78;23.63;;;0.20;99.90;;;;;;5008078;28;20029;-78
2024/01/20 03:57:14;;;;;;;46.55;23.00;;;0.30;99.90;;;;;;5010300;28;20060;-78
2024/01/20 03:59:39;;;;;;;47.05;22.75;;;0.30;99.90;;;;;;5009872;28;20080;-78
2024/01/20 04:02:05;;;;;;;45.92;23.60;;;0.30;99.90;;;;;;5002465;28;20081;-78
2024/01/20 04:04:31;;;;;;;52.45;23.98;;;0.30;99.90;;;;;;5013379;28;20038;-78
2024/01/20 04:06:57;;;;;;;45.60;23.20;;;0.30;99.90;;;;;;5012760;28;20125;-78
2024/01/20 04:09:23;;;;;;;50.63;23.60;;;0.30;99.90;;;;;;4992842;28;20116;-78
2024/01/20 04:11:48;;;;;;;45.40;23.05;;;0.30;99.90;;;;;;5005655;28;20038;-78
2024/01/20 04:14:14;;;;;;;48.90;23.42;;;0.30;99.90;;;;;;5011993;28;20038;-78
2024/01/20 04:16:39;;;;;;;47.30;23.50;;;0.20;99.90;;;;;;5006794;28;20092;-78
2024/01/20 04:19:05;;;;;;;50.83;23.42;;;0.20;99.90;;;;;;5013063;28;20058;-78
2024/01/20 04:21:30;;;;;;;56.92;25.13;;;0.20;99.90;;;;;;5002136;28;20053;-78
2024/01/20 04:23:56;;;;;;;56.45;24.23;;;0.20;99.90;;;;;;5005295;28;20030;-78
2024/01/20 04:26:21;;;;;;;44.55;23.38;;;0.20;99.90;;;;;;4994851;28;20125;-78
2024/01/20 04:28:47;;;;;;;57.35;25.02;;;0.10;99.90;;;;;;5007547;28;20034;-77
2024/01/20 04:31:12;;;;;;;53.47;23.38;;;0.10;99.90;;;;;;5006525;28;20161;-78
2024/01/20 04:33:40;;;;;;;60.58;25.58;;;0.10;99.90;;;;;;5012979;28;20044;-78
2024/01/20 04:36:06;;;;;;;53.22;24.60;;;0.00;99.90;;;;;;5011826;28;20472;-78
2024/01/20 04:38:32;;;;;;;51.92;24.80;;;0.00;99.90;;;;;;5008087;28;20042;-77
2024/01/20 04:40:57;;;;;;;53.85;23.52;;;0.00;99.90;;;;;;5008764;28;20037;-77
2024/01/20 04:43:23;;;;;;;55.97;24.83;;;0.00;99.90;;;;;;5011902;28;20045;-78
2024/01/20 04:45:48;;;;;;;53.83;24.70;;;0.00;99.90;;;;;;5004062;28;20697;-78
2024/01/20 04:48:16;;;;;;;53.63;25.15;;;0.30;99.90;;;;;;5008012;28;20442;-78
2024/01/20 04:50:42;;;;;;;56.03;25.10;;;0.10;99.90;;;;;;5005608;28;20107;-78
2024/01/20 04:53:07;;;;;;;53.92;24.38;;;-0.10;99.90;;;;;;5010058;28;20041;-78
2024/01/20 04:55:33;;;;;;;54.72;24.67;;;-0.20;99.90;;;;;;5010497;28;20050;-78
2024/01/20 04:57:58;;;;;;;52.17;24.80;;;-0.20;99.90;;;;;;4998589;28;20050;-78
2024/01/20 05:00:24;;;;;;;53.78;24.38;;;-0.20;99.90;;;;;;5007101;28;20046;-77
2024/01/20 05:02:49;;;;;;;51.65;24.15;;;-0.20;99.90;;;;;;5006130;28;20042;-78
2024/01/20 05:05:15;;;;;;;52.05;24.70;;;-0.20;99.90;;;;;;5011171;28;20109;-77
2024/01/20 05:07:40;;;;;;;49.45;23.38;;;-0.20;99.90;;;;;;5011026;28;20049;-78
2024/01/20 05:10:06;;;;;;;53.97;24.08;;;-0.20;99.90;;;;;;5013370;28;20037;-79
2024/01/20 05:12:32;;;;;;;53.47;24.42;;;-0.20;99.90;;;;;;5007919;28;20038;-78
2024/01/20 05:14:57;;;;;;;50.38;23.35;;;-0.20;99.90;;;;;;5005491;28;20045;-78
2024/01/20 05:17:23;;;;;;;55.13;24.10;;;-0.30;99.90;;;;;;5013621;28;20038;-78
2024/01/20 05:19:48;;;;;;;57.42;24.58;;;-0.20;99.90;;;;;;5010810;28;20406;-78
2024/01/20 05:22:16;;;;;;;51.78;24.25;;;-0.20;99.90;;;;;;5009719;28;20081;-78
2024/01/20 05:24:41;;;;;;;54.70;23.90;;;-0.20;99.90;;;;;;5011684;28;20046;-78
2024/01/20 05:27:07;;;;;;;49.58;21.83;;;-0.30;99.90;;;;;;5008439;28;20096;-78
2024/01/20 05:29:33;;;;;;;53.22;24.42;;;-0.30;99.90;;;;;;5012601;28;20042;-78
2024/01/20 05:31:58;;;;;;;54.25;23.02;;;0.10;99.90;;;;;;5007890;28;20117;-78
2024/01/20 05:34:24;;;;;;;49.53;22.63;;;-0.20;99.90;;;;;;5011778;28;20069;-78
2024/01/20 05:36:49;;;;;;;52.53;22.73;;;-0.20;99.90;;;;;;5011179;28;20042;-78
2024/01/20 05:39:15;;;;;;;55.08;23.25;;;-0.20;99.90;;;;;;5011476;28;20074;-78
2024/01/20 05:41:40;;;;;;;52.65;23.63;;;-0.20;99.90;;;;;;5010331;28;20050;-78
2024/01/20 05:44:06;;;;;;;50.38;22.45;;;-0.10;99.90;;;;;;4992952;28;20042;-78
2024/01/20 05:46:32;;;;;;;50.10;23.27;;;-0.20;99.90;;;;;;5008950;28;20050;-78
2024/01/20 05:48:58;;;;;;;51.53;23.60;;;-0.90;99.90;;;;;;5004744;28;20181;-78
2024/01/20 05:51:23;;;;;;;52.20;22.33;;;1.40;99.90;;;;;;5010484;28;20602;-78
2024/01/20 05:53:50;;;;;;;50.92;21.75;;;-0.10;99.90;;;;;;5011636;28;20486;-78
2024/01/20 05:56:15;;;;;;;47.50;21.50;;;-0.10;99.90;;;;;;5005531;28;20042;-78
2024/01/20 05:58:41;;;;;;;50.35;22.95;;;0.20;99.90;;;;;;5008079;28;20057;-78
2024/01/20 06:01:09;;;;;;;50.55;22.27;;;-0.10;99.90;;;;;;5011008;28;20038;-78
2024/01/20 06:03:35;;;;;;;48.53;22.25;;;-0.10;99.90;;;;;;5008894;28;20037;-78
2024/01/20 06:06:00;;;;;;;44.83;21.55;;;-0.10;99.90;;;;;;5015673;28;20037;-78
2024/01/20 06:08:26;;;;;;;48.22;22.15;;;-0.10;99.90;;;;;;4989511;28;20046;-77
2024/01/20 06:10:52;;;;;;;51.38;21.48;;;-0.10;99.90;;;;;;5010874;28;20428;-78
2024/01/20 06:13:17;;;;;;;48.47;22.00;;;0.00;99.90;;;;;;5009064;28;20678;-78
2024/01/20 06:15:43;;;;;;;48.47;21.50;;;0.00;99.90;;;;;;4993296;28;20034;-78
2024/01/20 06:18:08;;;;;;;50.45;21.40;;;0.00;99.90;;;;;;5010215;28;20038;-78
2024/01/20 06:20:34;;;;;;;47.88;21.88;;;0.00;99.90;;;;;;5010205;28;20037;-78
2024/01/20 06:22:59;;;;;;;49.13;21.42;;;0.00;99.90;;;;;;4999936;28;20137;-78
2024/01/20 06:25:25;;;;;;;48.03;21.33;;;-0.10;99.90;;;;;;4999250;28;20406;-78
2024/01/20 06:27:50;;;;;;;49.05;21.60;;;-0.10;99.90;;;;;;5010310;28;20045;-78
2024/01/20 06:30:16;;;;;;;46.70;20.65;;;-0.10;99.90;;;;;;5009407;28;20084;-78
2024/01/20 06:32:42;;;;;;;48.72;21.17;;;-0.10;99.90;;;;;;5006860;28;20045;-78
2024/01/20 06:35:08;;;;;;;53.70;22.40;;;-0.10;99.90;;;;;;5010455;28;20038;-78
2024/01/20 06:37:34;;;;;;;48.90;21.55;;;-0.20;99.90;;;;;;5007944;28;20057;-78
2024/01/20 06:39:59;;;;;;;44.88;19.75;;;-0.10;99.90;;;;;;5010726;28;20475;-78
2024/01/20 06:42:25;;;;;;;48.70;21.42;;;-0.20;99.90;;;;;;5005690;28;20077;-78
2024/01/20 06:44:51;;;;;;;48.50;21.52;;;-0.10;99.90;;;;;;5003478;28;20046;-77
2024/01/20 06:47:17;;;;;;;46.67;20.95;;;-0.10;99.90;;;;;;5010116;28;20049;-77
2024/01/20 06:49:49;;;;;;;49.45;21.95;;;-0.20;99.90;;;;;;5010709;28;20038;-78
2024/01/20 06:52:15;;;;;;;47.25;20.85;;;-0.20;99.90;;;;;;5009227;28;20049;-78
2024/01/20 06:54:41;;;;;;;53.05;20.45;;;-0.20;99.90;;;;;;4999674;28;20046;-78
2024/01/20 06:57:06;;;;;;;43.28;20.65;;;-0.20;99.90;;;;;;5005998;28;20042;-78
2024/01/20 06:59:32;;;;;;;51.90;21.70;;;-0.20;99.90;;;;;;5010183;28;20125;-78
2024/01/20 07:01:57;;;;;;;47.22;21.92;;;-0.20;99.90;;;;;;5010429;28;20046;-78
2024/01/20 07:04:23;;;;;;;51.38;22.17;;;-0.30;99.90;;;;;;4992187;28;20046;-81
2024/01/20 07:06:48;;;;;;;47.17;20.60;;;-0.20;99.90;;;;;;5005494;28;20044;-78
2024/01/20 07:09:14;;;;;;;43.58;21.55;;;-0.30;99.90;;;;;;5001521;28;20042;-78
2024/01/20 07:11:40;;;;;;;48.20;20.45;;;-0.30;99.90;;;;;;5005020;28;20038;-78
2024/01/20 07:14:05;;;;;;;53.42;21.98;;;-0.30;99.90;;;;;;5010426;28;20038;-78
2024/01/20 07:16:31;;;;;;;45.65;20.15;;;-0.30;99.90;;;;;;5006723;28;20084;-78
2024/01/20 07:18:56;;;;;;;49.97;20.63;;;-0.30;99.90;;;;;;5004915;28;20121;-78
2024/01/20 07:21:22;;;;;;;47.22;20.80;;;-0.30;99.90;;;;;;5007898;28;20124;-77
2024/01/20 07:23:48;;;;;;;45.30;20.40;;;-0.30;99.90;;;;;;5008352;28;20038;-79
2024/01/20 07:26:13;;;;;;;50.45;20.60;;;-0.40;99.90;;;;;;5005841;28;20045;-77
2024/01/20 07:28:39;;;;;;;50.40;20.83;;;0.30;99.90;;;;;;5004292;28;20029;-78
2024/01/20 07:31:04;;;;;;;45.00;20.98;;;-0.40;99.90;;;;;;4998119;28;20069;-79
2024/01/20 07:33:32;;;;;;;47.60;21.48;;;-0.10;99.90;;;;;;5005744;28;20121;-77
2024/01/20 07:35:58;;;;;;;48.65;20.58;;;-0.50;99.90;;;;;;5011579;28;20526;-78
2024/01/20 07:38:23;;;;;;;51.15;22.10;;;-0.50;99.90;;;;;;5009142;28;20073;-78
2024/01/20 07:40:53;;;;;;;50.28;20.73;;;-0.50;99.90;;;;;;5013338;28;20486;-78
2024/01/20 07:43:19;;;;;;;50.80;21.48;;;-0.30;99.90;;;;;;5009241;28;20041;-78
2024/01/20 07:45:45;;;;;;;47.58;21.65;;;-0.50;99.90;;;;;;5011030;28;20204;-78
2024/01/20 07:48:10;;;;;;;49.30;22.08;;;-0.50;99.90;;;;;;5012437;28;20522;-79
2024/01/20 07:50:36;;;;;;;47.97;21.55;;;-0.50;99.90;;;;;;5012770;28;20045;-79
2024/01/20 07:53:01;;;;;;;52.60;22.92;;;-0.60;99.90;;;;;;5010573;28;20472;-78
2024/01/20 07:55:27;;;;;;;52.63;22.33;;;-0.60;99.90;;;;;;5012720;28;20406;-77
2024/01/20 07:57:53;;;;;;;46.42;20.30;;;-0.50;99.90;;;;;;5004556;28;20479;-79
2024/01/20 08:00:18;;;;;;;51.17;21.98;;;-0.50;99.90;;;;;;5002543;28;20453;-78
2024/01/20 08:02:44;;;;;;;46.45;20.42;;;-0.50;99.90;;;;;;5005337;28;20046;-78
2024/01/20 08:05:09;;;;;;;52.30;21.10;;;-0.60;99.90;;;;;;5009337;28;20037;-78
2024/01/20 08:07:35;;;;;;;45.97;20.70;;;-0.50;99.90;;;;;;5009771;28;20050;-78
2024/01/20 08:10:01;;;;;;;54.03;21.48;;;-0.50;99.90;;;;;;5010685;28;20042;-77
2024/01/20 08:12:27;;;;;;;47.58;21.23;;;-0.50;99.90;;;;;;5007986;28;20047;-77
2024/01/20 08:14:52;;;;;;;48.05;20.92;;;-0.50;99.90;;;;;;5011936;28;20040;-78
2024/01/20 08:17:18;;;;;;;47.13;21.25;;;-0.40;99.90;;;;;;4997134;28;20034;-77
2024/01/20 08:19:45;;;;;;;54.90;22.30;;;-0.40;99.90;;;;;;5010162;28;20045;-77
2024/01/20 08:22:12;;;;;;;49.33;22.45;;;-0.40;99.90;;;;;;5009317;28;20053;-77
2024/01/20 08:24:38;;;;;;;50.60;22.25;;;-0.30;99.90;;;;;;5007654;28;20052;-76
2024/01/20 08:27:04;;;;;;;55.20;22.33;;;-0.30;99.90;;;;;;5006678;28;20060;-77
2024/01/20 08:29:29;;;;;;;46.67;21.60;;;-0.30;99.90;;;;;;4994538;28;20041;-77
2024/01/20 08:31:55;;;;;;;50.88;22.08;;;-0.20;99.90;;;;;;5007887;28;20084;-78
2024/01/20 08:34:20;;;;;;;49.63;22.00;;;-0.20;99.90;;;;;;5008125;28;20041;-78
2024/01/20 08:36:46;;;;;;;55.88;22.13;;;-0.10;99.90;;;;;;5011195;28;20100;-76
2024/01/20 08:39:11;;;;;;;52.88;22.30;;;0.10;99.90;;;;;;5006235;28;20050;-77
2024/01/20 08:41:37;;;;;;;52.47;21.65;;;0.00;99.90;;;;;;5006340;28;20054;-78
2024/01/20 08:44:02;;;;;;;46.97;21.23;;;0.10;99.90;;;;;;5009324;28;20037;-78
2024/01/20 08:46:29;;;;;;;46.78;21.45;;;0.10;99.90;;;;;;5010590;28;20050;-77
2024/01/20 08:48:55;;;;;;;48.45;20.60;;;0.10;99.90;;;;;;5004920;28;20041;-77
2024/01/20 08:51:20;;;;;;;49.33;21.33;;;0.10;99.90;;;;;;5006401;28;20396;-75
2024/01/20 08:53:47;;;;;;;48.20;20.45;;;0.20;99.90;;;;;;5012294;28;20034;-78
2024/01/20 08:56:12;;;;;;;52.13;22.48;;;0.20;99.90;;;;;;5010562;28;20052;-77
2024/01/20 08:58:38;;;;;;;51.22;20.77;;;0.20;99.90;;;;;;5010765;28;20042;-79
2024/01/20 09:01:04;;;;;;;49.90;20.88;;;0.20;99.90;;;;;;4987088;28;20038;-78
2024/01/20 09:03:30;;;;;;;46.58;20.65;;;0.30;99.90;;;;;;5007260;28;20045;-80
2024/01/20 09:05:55;;;;;;;46.75;20.23;;;0.30;99.90;;;;;;5009631;28;20057;-78
2024/01/20 09:08:21;;;;;;;47.92;20.73;;;0.30;99.90;;;;;;5007798;28;20050;-79
2024/01/20 09:10:47;;;;;;;48.03;20.20;;;0.40;99.90;;;;;;5005927;28;20129;-77
2024/01/20 09:13:13;;;;;;;49.47;20.38;;;0.50;99.90;;;;;;5001503;28;20450;-79
2024/01/20 09:15:38;;;;;;;46.22;20.05;;;0.60;99.90;;;;;;5008475;28;20468;-80
2024/01/20 09:18:04;;;;;;;43.50;19.90;;;0.70;99.90;;;;;;5005563;28;20426;-78
2024/01/20 09:20:29;;;;;;;44.97;19.50;;;0.70;99.90;;;;;;5008699;28;20478;-80
2024/01/20 09:22:55;;;;;;;46.97;20.58;;;0.80;99.90;;;;;;5004796;28;20069;-80
2024/01/20 09:25:20;;;;;;;43.72;19.38;;;0.80;99.90;;;;;;5005997;28;20491;-75
2024/01/20 09:27:46;;;;;;;45.97;19.00;;;0.90;99.90;;;;;;5010340;28;20034;-77
2024/01/20 09:30:12;;;;;;;42.63;20.05;;;0.90;99.90;;;;;;4986640;28;20046;-79
2024/01/20 09:32:38;;;;;;;43.22;18.92;;;1.00;99.90;;;;;;5007790;28;20121;-78
2024/01/20 09:35:04;;;;;;;44.25;19.30;;;0.90;99.90;;;;;;5008728;28;20046;-79
2024/01/20 09:37:29;;;;;;;44.78;19.92;;;1.00;99.90;;;;;;5010147;28;20041;-79
2024/01/20 09:40:00;;;;;;;38.95;18.90;;;1.00;99.90;;;;;;5011297;28;20507;-79
2024/01/20 09:42:26;;;;;;;43.85;19.42;;;1.00;99.90;;;;;;5006334;28;20096;-79
2024/01/20 09:44:52;;;;;;;44.20;18.85;;;1.10;99.90;;;;;;5005965;28;20487;-79
2024/01/20 09:47:18;;;;;;;42.05;18.70;;;1.10;99.90;;;;;;5008706;28;20041;-79
2024/01/20 09:49:43;;;;;;;40.20;18.67;;;1.10;99.90;;;;;;5009688;28;20537;-79
2024/01/20 09:52:18;;;;;;;41.95;18.80;;;1.10;99.90;;;;;;5010327;28;20049;-79
2024/01/20 09:54:54;;;;;;;44.28;17.98;;;1.10;99.90;;;;;;5006888;28;20034;-79
2024/01/20 09:57:21;;;;;;;43.58;18.15;;;1.10;99.90;;;;;;5001942;28;20050;-79
2024/01/20 09:59:50;;;;;;;45.83;19.27;;;1.20;99.90;;;;;;5004767;28;20045;-79
2024/01/20 10:02:17;;;;;;;37.75;18.27;;;1.20;99.90;;;;;;5009660;28;20078;-78
2024/01/20 10:04:46;;;;;;;41.08;18.35;;;1.20;99.90;;;;;;5007157;28;20125;-79
2024/01/20 10:07:27;;;;;;;37.47;18.60;;;1.20;99.90;;;;;;5002374;28;20172;-79
2024/01/20 10:09:53;;;;;;;41.53;19.02;;;1.20;99.90;;;;;;5001270;28;20034;-79
2024/01/20 10:12:18;;;;;;;40.97;18.27;;;1.20;99.90;;;;;;5006677;28;20072;-79
2024/01/20 10:14:44;;;;;;;45.45;18.15;;;2.10;99.90;;;;;;5001564;28;20510;-79
2024/01/20 10:17:09;;;;;;;40.53;18.33;;;1.30;99.90;;;;;;5010631;28;20037;-79
2024/01/20 10:19:35;;;;;;;43.58;18.10;;;1.30;99.90;;;;;;5010092;28;20506;-79
2024/01/20 10:22:07;;;;;;;39.47;17.80;;;1.30;99.90;;;;;;5008348;28;20052;-79
2024/01/20 10:24:33;;;;;;;40.55;18.33;;;1.30;99.90;;;;;;5013634;28;20057;-79
2024/01/20 10:27:00;;;;;;;43.78;19.30;;;1.30;99.90;;;;;;5002557;28;20054;-80
2024/01/20 10:29:25;;;;;;;39.25;17.58;;;1.40;99.90;;;;;;5007037;28;20137;-78
2024/01/20 10:31:51;;;;;;;40.85;17.38;;;1.40;99.90;;;;;;5008018;28;20477;-80
2024/01/20 10:34:16;;;;;;;37.70;17.42;;;1.40;99.90;;;;;;5009614;28;20040;-79
2024/01/20 10:36:44;;;;;;;36.08;17.00;;;1.40;99.90;;;;;;5007458;28;20037;-78
2024/01/20 10:39:17;;;;;;;39.00;17.65;;;1.40;99.90;;;;;;4997801;28;20050;-78
2024/01/20 10:41:47;;;;;;;41.20;17.17;;;1.50;99.90;;;;;;5006576;28;20073;-79
2024/01/20 10:44:16;;;;;;;43.65;18.85;;;1.40;99.90;;;;;;5000638;28;20117;-78
2024/01/20 10:46:45;;;;;;;41.63;18.65;;;1.50;99.90;;;;;;5007613;28;20041;-78
2024/01/20 10:49:17;;;;;;;42.67;18.35;;;1.60;99.90;;;;;;5002955;28;20050;-79
2024/01/20 10:51:44;;;;;;;37.22;18.40;;;1.50;99.90;;;;;;5006583;28;20038;-78
2024/01/20 10:54:12;;;;;;;41.67;17.45;;;1.60;99.90;;;;;;4990807;28;20831;-79
2024/01/20 10:56:39;;;;;;;40.65;17.55;;;1.60;99.90;;;;;;5009963;28;20045;-79
2024/01/20 10:59:13;;;;;;;36.85;17.52;;;1.60;99.90;;;;;;5009371;28;20522;-79
2024/01/20 11:01:41;;;;;;;40.92;17.52;;;1.60;99.90;;;;;;5004308;28;20552;-78
2024/01/20 11:04:10;;;;;;;38.10;17.70;;;1.60;99.90;;;;;;5004961;28;20126;-79
2024/01/20 11:06:36;;;;;;;36.35;17.63;;;1.60;99.90;;;;;;5002572;28;20050;-79
2024/01/20 11:09:02;;;;;;;32.72;15.63;;;1.70;99.90;;;;;;5004428;28;20132;-78
2024/01/20 11:11:29;;;;;;;40.47;17.73;;;1.70;99.90;;;;;;5004835;28;20529;-78
2024/01/20 11:13:59;;;;;;;36.95;17.65;;;1.70;99.90;;;;;;4992052;28;20053;-77
2024/01/20 11:16:28;;;;;;;40.88;17.90;;;1.70;99.90;;;;;;5006837;28;20511;-79
2024/01/20 11:19:07;;;;;;;36.45;17.45;;;1.70;99.90;;;;;;5003129;28;20034;-78
2024/01/20 11:21:33;;;;;;;40.95;17.30;;;1.70;99.90;;;;;;5008937;28;20061;-79
2024/01/20 11:23:59;;;;;;;33.80;16.80;;;1.70;99.90;;;;;;5012648;28;20124;-81
2024/01/20 11:26:33;;;;;;;35.60;17.13;;;1.80;99.90;;;;;;5001532;28;20086;-79
2024/01/20 11:29:00;;;;;;;39.22;17.92;;;1.80;99.90;;;;;;5007758;28;20045;-78
2024/01/20 11:31:26;;;;;;;34.83;16.83;;;1.80;99.90;;;;;;4990622;28;20038;-78
2024/01/20 11:33:52;;;;;;;38.45;17.35;;;1.80;99.90;;;;;;5012608;28;20038;-78
2024/01/20 11:36:18;;;;;;;37.85;17.20;;;1.90;99.90;;;;;;5006669;28;20053;-77
2024/01/20 11:38:45;;;;;;;34.20;17.00;;;1.90;99.90;;;;;;5012114;28;20048;-77
2024/01/20 11:41:11;;;;;;;34.85;16.98;;;1.90;99.90;;;;;;5012705;28;20053;-77
2024/01/20 11:43:43;;;;;;;35.28;16.95;;;1.90;99.90;;;;;;5009357;28;20038;-77
2024/01/20 11:46:08;;;;;;;34.83;17.05;;;2.00;99.90;;;;;;5002461;28;20050;-78
2024/01/20 11:48:34;;;;;;;39.00;17.33;;;2.00;99.90;;;;;;5012558;28;20494;-77
2024/01/20 11:51:01;;;;;;;32.33;16.63;;;2.10;99.90;;;;;;5007500;28;20037;-77
2024/01/20 11:53:27;;;;;;;30.55;15.65;;;2.10;99.90;;;;;;5013576;28;20050;-77
2024/01/20 11:55:59;;;;;;;34.13;16.38;;;2.10;99.90;;;;;;5009223;28;20042;-77
2024/01/20 11:58:25;;;;;;;36.83;16.50;;;2.10;99.90;;;;;;5007756;28;20045;-77
2024/01/20 12:00:52;;;;;;;35.42;16.20;;;2.20;99.90;;;;;;5011092;28;20056;-77
2024/01/20 12:03:19;;;;;;;36.80;17.25;;;2.20;99.90;;;;;;5008281;28;20092;-78
2024/01/20 12:05:44;;;;;;;39.53;16.88;;;2.20;99.90;;;;;;5011458;28;20050;-80
2024/01/20 12:08:10;;;;;;;38.15;16.20;;;2.30;99.90;;;;;;5007541;28;20068;-77
2024/01/20 12:10:36;;;;;;;34.28;15.75;;;2.30;99.90;;;;;;5013652;28;20064;-78
2024/01/20 12:13:04;;;;;;;34.83;16.50;;;2.30;99.90;;;;;;5004064;28;20039;-78
2024/01/20 12:15:36;;;;;;;34.47;16.10;;;2.30;99.90;;;;;;5009565;28;20091;-78
2024/01/20 12:18:02;;;;;;;34.50;17.23;;;2.40;99.90;;;;;;5003495;28;20045;-77
2024/01/20 12:20:28;;;;;;;32.47;16.00;;;2.40;99.90;;;;;;5012467;28;20125;-77
2024/01/20 12:22:59;;;;;;;34.22;16.30;;;2.40;99.90;;;;;;5006162;28;20121;-77
2024/01/20 12:25:28;;;;;;;33.40;16.10;;;2.40;99.90;;;;;;5004156;28;20081;-77
2024/01/20 12:27:54;;;;;;;31.08;15.13;;;2.50;99.90;;;;;;5011002;28;20044;-78